sensor_id;sensor_type;location;lat;lon;timestamp;pressure;altitude;pressure_sealevel;temperature;humidity
77118;BME280;66072;50.238;19.228;2023-02-26T00:01:31;97265.38;;;0.02;88.84
77118;BME280;66072;50.238;19.228;2023-02-26T00:04:02;97267.39;;;0.02;89.00
77118;BME280;66072;50.238;19.228;2023-02-26T00:06:32;97273.94;;;0.02;89.14
77118;BME280;66072;50.238;19.228;2023-02-26T00:09:02;97273.42;;;0.02;89.13
77118;BME280;66072;50.238;19.228;2023-02-26T00:11:31;97279.16;;;0.02;89.15
77118;BME280;66072;50.238;19.228;2023-02-26T00:13:59;97283.21;;;0.02;89.12
77118;BME280;66072;50.238;19.228;2023-02-26T00:18:59;97291.61;;;0.02;88.84
77118;BME280;66072;50.238;19.228;2023-02-26T00:21:28;97296.50;;;0.00;88.56
77118;BME280;66072;50.238;19.228;2023-02-26T00:23:58;97300.68;;;0.01;88.31
77118;BME280;66072;50.238;19.228;2023-02-26T00:26:26;97300.35;;;0.02;88.35
77118;BME280;66072;50.238;19.228;2023-02-26T00:28:55;97304.05;;;0.01;88.37
77118;BME280;66072;50.238;19.228;2023-02-26T00:31:23;97308.27;;;0.01;88.48
77118;BME280;66072;50.238;19.228;2023-02-26T00:33:52;97309.09;;;0.01;88.09
77118;BME280;66072;50.238;19.228;2023-02-26T00:36:25;97316.49;;;0.01;88.34
77118;BME280;66072;50.238;19.228;2023-02-26T00:39:21;97319.18;;;0.01;88.18
77118;BME280;66072;50.238;19.228;2023-02-26T00:41:54;97321.05;;;0.00;88.05
77118;BME280;66072;50.238;19.228;2023-02-26T00:44:22;97323.74;;;-0.01;87.70
77118;BME280;66072;50.238;19.228;2023-02-26T00:52:52;97326.01;;;-0.04;87.69
77118;BME280;66072;50.238;19.228;2023-02-26T00:55:24;97334.60;;;-0.05;87.51
77118;BME280;66072;50.238;19.228;2023-02-26T00:57:53;97338.34;;;-0.07;86.84
77118;BME280;66072;50.238;19.228;2023-02-26T01:00:20;97342.87;;;-0.06;87.08
77118;BME280;66072;50.238;19.228;2023-02-26T01:02:48;97342.87;;;-0.07;87.31
77118;BME280;66072;50.238;19.228;2023-02-26T01:05:17;97347.25;;;-0.07;87.19
77118;BME280;66072;50.238;19.228;2023-02-26T01:10:57;97353.13;;;-0.06;87.62
77118;BME280;66072;50.238;19.228;2023-02-26T01:13:25;97355.83;;;-0.07;87.89
77118;BME280;66072;50.238;19.228;2023-02-26T01:15:58;97358.72;;;-0.09;87.90
77118;BME280;66072;50.238;19.228;2023-02-26T01:18:49;97354.64;;;-0.14;88.60
77118;BME280;66072;50.238;19.228;2023-02-26T01:21:22;97350.19;;;-0.18;89.42
77118;BME280;66072;50.238;19.228;2023-02-26T01:23:52;97351.79;;;-0.22;89.84
77118;BME280;66072;50.238;19.228;2023-02-26T01:26:26;97351.06;;;-0.28;90.50
77118;BME280;66072;50.238;19.228;2023-02-26T01:28:55;97349.84;;;-0.34;91.00
77118;BME280;66072;50.238;19.228;2023-02-26T01:31:47;97353.49;;;-0.40;91.26
77118;BME280;66072;50.238;19.228;2023-02-26T01:36:51;97360.98;;;-0.52;91.78
77118;BME280;66072;50.238;19.228;2023-02-26T01:39:30;97359.53;;;-0.55;91.69
77118;BME280;66072;50.238;19.228;2023-02-26T01:42:05;97358.08;;;-0.58;91.77
77118;BME280;66072;50.238;19.228;2023-02-26T01:47:50;97369.90;;;-0.61;91.60
77118;BME280;66072;50.238;19.228;2023-02-26T01:50:22;97372.93;;;-0.62;91.25
77118;BME280;66072;50.238;19.228;2023-02-26T01:55:22;97374.10;;;-0.62;91.38
77118;BME280;66072;50.238;19.228;2023-02-26T01:57:53;97379.83;;;-0.63;91.35
77118;BME280;66072;50.238;19.228;2023-02-26T02:00:22;97379.65;;;-0.63;91.20
77118;BME280;66072;50.238;19.228;2023-02-26T02:02:49;97379.85;;;-0.64;91.01
77118;BME280;66072;50.238;19.228;2023-02-26T02:05:29;97386.05;;;-0.63;90.46
77118;BME280;66072;50.238;19.228;2023-02-26T02:07:59;97390.08;;;-0.63;90.38
77118;BME280;66072;50.238;19.228;2023-02-26T02:10:27;97396.13;;;-0.64;89.95
77118;BME280;66072;50.238;19.228;2023-02-26T02:13:18;97399.45;;;-0.62;89.49
77118;BME280;66072;50.238;19.228;2023-02-26T02:16:02;97404.48;;;-0.61;89.49
77118;BME280;66072;50.238;19.228;2023-02-26T02:19:13;97408.50;;;-0.61;89.16
77118;BME280;66072;50.238;19.228;2023-02-26T02:21:43;97414.53;;;-0.60;89.06
77118;BME280;66072;50.238;19.228;2023-02-26T02:26:55;97424.95;;;-0.60;88.40
77118;BME280;66072;50.238;19.228;2023-02-26T02:32:30;97433.13;;;-0.58;88.79
77118;BME280;66072;50.238;19.228;2023-02-26T02:35:08;97433.33;;;-0.59;88.69
77118;BME280;66072;50.238;19.228;2023-02-26T02:37:44;97441.42;;;-0.61;88.37
77118;BME280;66072;50.238;19.228;2023-02-26T02:40:22;97444.11;;;-0.62;88.41
77118;BME280;66072;50.238;19.228;2023-02-26T02:42:59;97446.30;;;-0.63;88.43
77118;BME280;66072;50.238;19.228;2023-02-26T02:48:30;97450.73;;;-0.65;87.48
77118;BME280;66072;50.238;19.228;2023-02-26T02:51:00;97450.89;;;-0.65;87.72
77118;BME280;66072;50.238;19.228;2023-02-26T02:53:35;97451.08;;;-0.66;87.42
77118;BME280;66072;50.238;19.228;2023-02-26T02:56:07;97454.95;;;-0.66;87.37
77118;BME280;66072;50.238;19.228;2023-02-26T02:58:41;97452.95;;;-0.67;87.25
77118;BME280;66072;50.238;19.228;2023-02-26T03:01:12;97452.11;;;-0.67;87.53
77118;BME280;66072;50.238;19.228;2023-02-26T03:04:01;97453.45;;;-0.67;87.70
77118;BME280;66072;50.238;19.228;2023-02-26T03:06:33;97453.80;;;-0.68;87.71
77118;BME280;66072;50.238;19.228;2023-02-26T03:09:03;97455.80;;;-0.68;87.51
77118;BME280;66072;50.238;19.228;2023-02-26T03:11:32;97459.54;;;-0.70;87.23
77118;BME280;66072;50.238;19.228;2023-02-26T03:14:00;97460.91;;;-0.71;87.19
77118;BME280;66072;50.238;19.228;2023-02-26T03:16:41;97463.63;;;-0.73;86.86
77118;BME280;66072;50.238;19.228;2023-02-26T03:22:11;97472.60;;;-0.77;86.25
77118;BME280;66072;50.238;19.228;2023-02-26T03:24:47;97480.52;;;-0.78;86.84
77118;BME280;66072;50.238;19.228;2023-02-26T03:27:33;97485.23;;;-0.80;86.22
77118;BME280;66072;50.238;19.228;2023-02-26T03:33:11;97502.23;;;-0.82;85.77
77118;BME280;66072;50.238;19.228;2023-02-26T03:35:53;97508.77;;;-0.82;85.29
77118;BME280;66072;50.238;19.228;2023-02-26T03:38:48;97510.30;;;-0.83;85.31
77118;BME280;66072;50.238;19.228;2023-02-26T03:41:23;97518.02;;;-0.83;85.77
77118;BME280;66072;50.238;19.228;2023-02-26T03:43:59;97516.70;;;-0.84;84.77
77118;BME280;66072;50.238;19.228;2023-02-26T03:46:38;97521.73;;;-0.84;85.13
77118;BME280;66072;50.238;19.228;2023-02-26T03:49:11;97528.63;;;-0.85;85.01
77118;BME280;66072;50.238;19.228;2023-02-26T03:51:41;97534.35;;;-0.85;84.50
77118;BME280;66072;50.238;19.228;2023-02-26T03:54:20;97540.05;;;-0.85;84.84
77118;BME280;66072;50.238;19.228;2023-02-26T03:56:49;97541.23;;;-0.86;84.21
77118;BME280;66072;50.238;19.228;2023-02-26T03:59:17;97544.25;;;-0.87;84.48
77118;BME280;66072;50.238;19.228;2023-02-26T04:04:56;97553.83;;;-0.87;84.28
77118;BME280;66072;50.238;19.228;2023-02-26T04:07:25;97551.35;;;-0.89;83.48
77118;BME280;66072;50.238;19.228;2023-02-26T04:09:53;97553.21;;;-0.90;83.60
77118;BME280;66072;50.238;19.228;2023-02-26T04:12:23;97554.23;;;-0.91;84.04
77118;BME280;66072;50.238;19.228;2023-02-26T04:14:51;97554.59;;;-0.91;83.97
77118;BME280;66072;50.238;19.228;2023-02-26T04:17:19;97558.95;;;-0.92;84.14
77118;BME280;66072;50.238;19.228;2023-02-26T04:19:46;97559.80;;;-0.93;83.95
77118;BME280;66072;50.238;19.228;2023-02-26T04:22:14;97562.33;;;-0.94;84.02
77118;BME280;66072;50.238;19.228;2023-02-26T04:24:42;97575.09;;;-0.94;84.16
77118;BME280;66072;50.238;19.228;2023-02-26T04:27:09;97578.30;;;-0.95;83.61
77118;BME280;66072;50.238;19.228;2023-02-26T04:29:37;97582.20;;;-0.97;83.50
77118;BME280;66072;50.238;19.228;2023-02-26T04:32:04;97584.74;;;-1.00;82.22
77118;BME280;66072;50.238;19.228;2023-02-26T04:34:32;97590.14;;;-1.01;81.71
77118;BME280;66072;50.238;19.228;2023-02-26T04:37:00;97592.20;;;-1.04;81.48
77118;BME280;66072;50.238;19.228;2023-02-26T04:39:27;97597.56;;;-1.05;82.41
77118;BME280;66072;50.238;19.228;2023-02-26T04:41:55;97596.76;;;-1.06;82.33
77118;BME280;66072;50.238;19.228;2023-02-26T04:44:22;97601.33;;;-1.08;82.12
77118;BME280;66072;50.238;19.228;2023-02-26T04:46:50;97602.86;;;-1.13;81.85
77118;BME280;66072;50.238;19.228;2023-02-26T04:49:18;97602.75;;;-1.15;81.12
77118;BME280;66072;50.238;19.228;2023-02-26T04:51:45;97604.27;;;-1.17;81.62
77118;BME280;66072;50.238;19.228;2023-02-26T04:54:13;97608.98;;;-1.18;81.78
77118;BME280;66072;50.238;19.228;2023-02-26T04:56:41;97613.71;;;-1.20;81.48
77118;BME280;66072;50.238;19.228;2023-02-26T04:59:09;97619.27;;;-1.21;82.01
77118;BME280;66072;50.238;19.228;2023-02-26T05:01:36;97617.95;;;-1.22;81.46
77118;BME280;66072;50.238;19.228;2023-02-26T05:04:04;97623.16;;;-1.22;82.07
77118;BME280;66072;50.238;19.228;2023-02-26T05:06:32;97629.35;;;-1.23;81.95
77118;BME280;66072;50.238;19.228;2023-02-26T05:08:59;97634.39;;;-1.23;82.15
77118;BME280;66072;50.238;19.228;2023-02-26T05:11:27;97637.10;;;-1.25;81.97
77118;BME280;66072;50.238;19.228;2023-02-26T05:13:55;97641.45;;;-1.25;82.23
77118;BME280;66072;50.238;19.228;2023-02-26T05:16:22;97644.66;;;-1.26;81.96
77118;BME280;66072;50.238;19.228;2023-02-26T05:18:50;97642.00;;;-1.26;82.54
77118;BME280;66072;50.238;19.228;2023-02-26T05:21:18;97646.38;;;-1.28;82.45
77118;BME280;66072;50.238;19.228;2023-02-26T05:23:46;97648.39;;;-1.29;82.44
77118;BME280;66072;50.238;19.228;2023-02-26T05:26:13;97658.79;;;-1.28;82.84
77118;BME280;66072;50.238;19.228;2023-02-26T05:28:41;97663.14;;;-1.28;82.95
77118;BME280;66072;50.238;19.228;2023-02-26T05:31:09;97670.52;;;-1.28;83.16
77118;BME280;66072;50.238;19.228;2023-02-26T05:33:36;97665.85;;;-1.30;82.84
77118;BME280;66072;50.238;19.228;2023-02-26T05:36:04;97678.25;;;-1.28;82.99
77118;BME280;66072;50.238;19.228;2023-02-26T05:38:32;97679.92;;;-1.28;82.89
77118;BME280;66072;50.238;19.228;2023-02-26T05:41:00;97686.63;;;-1.29;83.03
77118;BME280;66072;50.238;19.228;2023-02-26T05:43:28;97694.20;;;-1.30;82.97
77118;BME280;66072;50.238;19.228;2023-02-26T05:45:56;97705.96;;;-1.31;82.85
77118;BME280;66072;50.238;19.228;2023-02-26T05:48:23;97714.83;;;-1.30;83.23
77118;BME280;66072;50.238;19.228;2023-02-26T05:50:51;97722.36;;;-1.29;83.70
77118;BME280;66072;50.238;19.228;2023-02-26T05:53:19;97726.39;;;-1.28;83.58
77118;BME280;66072;50.238;19.228;2023-02-26T05:55:47;97731.42;;;-1.28;83.45
77118;BME280;66072;50.238;19.228;2023-02-26T05:58:14;97730.39;;;-1.26;83.47
77118;BME280;66072;50.238;19.228;2023-02-26T06:00:42;97739.11;;;-1.26;83.09
77118;BME280;66072;50.238;19.228;2023-02-26T06:03:10;97743.96;;;-1.25;83.35
77118;BME280;66072;50.238;19.228;2023-02-26T06:05:37;97747.13;;;-1.24;83.72
77118;BME280;66072;50.238;19.228;2023-02-26T06:08:05;97752.48;;;-1.23;83.87
77118;BME280;66072;50.238;19.228;2023-02-26T06:10:33;97756.85;;;-1.23;83.83
77118;BME280;66072;50.238;19.228;2023-02-26T06:13:00;97759.21;;;-1.25;83.52
77118;BME280;66072;50.238;19.228;2023-02-26T06:15:28;97761.73;;;-1.25;83.74
77118;BME280;66072;50.238;19.228;2023-02-26T06:17:56;97770.11;;;-1.24;84.05
77118;BME280;66072;50.238;19.228;2023-02-26T06:20:23;97776.98;;;-1.23;84.31
77118;BME280;66072;50.238;19.228;2023-02-26T06:22:51;97777.99;;;-1.22;84.55
77118;BME280;66072;50.238;19.228;2023-02-26T06:25:18;97781.85;;;-1.23;84.90
77118;BME280;66072;50.238;19.228;2023-02-26T06:27:46;97786.39;;;-1.24;85.03
77118;BME280;66072;50.238;19.228;2023-02-26T06:30:14;97789.45;;;-1.28;85.27
77118;BME280;66072;50.238;19.228;2023-02-26T06:32:41;97786.95;;;-1.30;85.17
77118;BME280;66072;50.238;19.228;2023-02-26T06:35:09;97790.33;;;-1.32;84.95
77118;BME280;66072;50.238;19.228;2023-02-26T06:37:37;97799.06;;;-1.33;84.73
77118;BME280;66072;50.238;19.228;2023-02-26T06:40:05;97802.38;;;-1.28;85.26
77118;BME280;66072;50.238;19.228;2023-02-26T06:42:33;97797.14;;;-1.25;85.26
77118;BME280;66072;50.238;19.228;2023-02-26T06:45:01;97801.62;;;-1.21;85.10
77118;BME280;66072;50.238;19.228;2023-02-26T06:47:29;97807.95;;;-1.17;85.02
77118;BME280;66072;50.238;19.228;2023-02-26T06:49:56;97805.72;;;-1.12;84.75
77118;BME280;66072;50.238;19.228;2023-02-26T06:52:24;97805.02;;;-1.08;84.38
77118;BME280;66072;50.238;19.228;2023-02-26T06:54:51;97809.80;;;-1.01;84.18
77118;BME280;66072;50.238;19.228;2023-02-26T06:57:19;97813.89;;;-0.93;84.31
77118;BME280;66072;50.238;19.228;2023-02-26T06:59:47;97815.69;;;-0.87;83.85
77118;BME280;66072;50.238;19.228;2023-02-26T07:02:20;97821.48;;;-0.82;83.95
77118;BME280;66072;50.238;19.228;2023-02-26T07:04:48;97825.82;;;-0.78;83.71
77118;BME280;66072;50.238;19.228;2023-02-26T07:07:15;97834.88;;;-0.76;83.49
77118;BME280;66072;50.238;19.228;2023-02-26T07:09:43;97838.38;;;-0.75;83.28
77118;BME280;66072;50.238;19.228;2023-02-26T07:12:12;97842.55;;;-0.72;83.55
77118;BME280;66072;50.238;19.228;2023-02-26T07:14:40;97837.36;;;-0.73;82.87
77118;BME280;66072;50.238;19.228;2023-02-26T07:17:08;97838.15;;;-0.70;83.13
77118;BME280;66072;50.238;19.228;2023-02-26T07:19:36;97845.83;;;-0.66;82.94
77118;BME280;66072;50.238;19.228;2023-02-26T07:22:03;97851.64;;;-0.60;82.12
77118;BME280;66072;50.238;19.228;2023-02-26T07:24:31;97851.99;;;-0.62;81.51
77118;BME280;66072;50.238;19.228;2023-02-26T07:26:58;97854.77;;;-0.55;82.10
77118;BME280;66072;50.238;19.228;2023-02-26T07:29:26;97852.51;;;-0.48;81.72
77118;BME280;66072;50.238;19.228;2023-02-26T07:31:53;97850.92;;;-0.43;80.62
77118;BME280;66072;50.238;19.228;2023-02-26T07:34:21;97856.92;;;-0.40;78.85
77118;BME280;66072;50.238;19.228;2023-02-26T07:36:49;97866.40;;;-0.31;79.00
77118;BME280;66072;50.238;19.228;2023-02-26T07:39:16;97865.94;;;-0.22;79.58
77118;BME280;66072;50.238;19.228;2023-02-26T07:41:44;97870.02;;;-0.13;78.11
77118;BME280;66072;50.238;19.228;2023-02-26T07:44:11;97876.27;;;-0.04;77.29
77118;BME280;66072;50.238;19.228;2023-02-26T07:46:39;97879.85;;;0.06;77.48
77118;BME280;66072;50.238;19.228;2023-02-26T07:49:07;97882.80;;;0.12;76.14
77118;BME280;66072;50.238;19.228;2023-02-26T07:51:34;97886.82;;;0.13;74.57
77118;BME280;66072;50.238;19.228;2023-02-26T07:54:02;97890.70;;;0.11;73.53
77118;BME280;66072;50.238;19.228;2023-02-26T07:56:29;97889.41;;;0.08;73.20
77118;BME280;66072;50.238;19.228;2023-02-26T07:58:57;97893.67;;;0.15;73.66
77118;BME280;66072;50.238;19.228;2023-02-26T08:01:24;97893.73;;;0.23;73.92
77118;BME280;66072;50.238;19.228;2023-02-26T08:03:52;97892.80;;;0.29;72.96
77118;BME280;66072;50.238;19.228;2023-02-26T08:06:20;97894.42;;;0.33;70.52
77118;BME280;66072;50.238;19.228;2023-02-26T08:08:47;97895.36;;;0.37;71.71
77118;BME280;66072;50.238;19.228;2023-02-26T08:11:15;97897.52;;;0.40;71.52
77118;BME280;66072;50.238;19.228;2023-02-26T08:13:42;97896.73;;;0.48;72.00
77118;BME280;66072;50.238;19.228;2023-02-26T08:16:10;97899.20;;;0.61;72.43
77118;BME280;66072;50.238;19.228;2023-02-26T08:18:38;97900.80;;;0.67;70.87
77118;BME280;66072;50.238;19.228;2023-02-26T08:21:05;97901.36;;;0.73;71.98
77118;BME280;66072;50.238;19.228;2023-02-26T08:23:33;97901.40;;;0.71;72.39
77118;BME280;66072;50.238;19.228;2023-02-26T08:26:05;97912.44;;;0.75;73.65
77118;BME280;66072;50.238;19.228;2023-02-26T08:28:33;97914.11;;;0.76;73.61
77118;BME280;66072;50.238;19.228;2023-02-26T08:31:02;97920.33;;;0.77;74.15
77118;BME280;66072;50.238;19.228;2023-02-26T08:33:30;97922.42;;;0.72;73.30
77118;BME280;66072;50.238;19.228;2023-02-26T08:35:58;97928.65;;;0.71;73.98
77118;BME280;66072;50.238;19.228;2023-02-26T08:38:27;97928.64;;;0.72;74.45
77118;BME280;66072;50.238;19.228;2023-02-26T08:40:55;97926.52;;;0.78;73.24
77118;BME280;66072;50.238;19.228;2023-02-26T08:43:23;97925.87;;;0.97;72.76
77118;BME280;66072;50.238;19.228;2023-02-26T08:45:53;97925.46;;;1.02;71.66
77118;BME280;66072;50.238;19.228;2023-02-26T08:48:21;97928.20;;;1.19;71.80
77118;BME280;66072;50.238;19.228;2023-02-26T08:50:49;97926.79;;;1.23;69.45
77118;BME280;66072;50.238;19.228;2023-02-26T08:53:17;97931.05;;;1.29;69.88
77118;BME280;66072;50.238;19.228;2023-02-26T08:55:49;97939.89;;;1.04;72.77
77118;BME280;66072;50.238;19.228;2023-02-26T08:58:18;97949.36;;;0.81;76.22
77118;BME280;66072;50.238;19.228;2023-02-26T09:00:46;97965.41;;;0.43;79.01
77118;BME280;66072;50.238;19.228;2023-02-26T09:03:14;97962.38;;;0.06;80.12
77118;BME280;66072;50.238;19.228;2023-02-26T09:05:41;97976.55;;;-0.11;79.88
77118;BME280;66072;50.238;19.228;2023-02-26T09:08:09;97982.05;;;-0.38;81.58
77118;BME280;66072;50.238;19.228;2023-02-26T09:10:37;97988.18;;;-0.45;82.12
77118;BME280;66072;50.238;19.228;2023-02-26T09:13:07;97994.36;;;-0.59;82.98
77118;BME280;66072;50.238;19.228;2023-02-26T09:15:35;98000.30;;;-0.65;83.83
77118;BME280;66072;50.238;19.228;2023-02-26T09:18:03;98006.77;;;-0.56;83.41
77118;BME280;66072;50.238;19.228;2023-02-26T09:20:31;98003.91;;;-0.39;82.95
77118;BME280;66072;50.238;19.228;2023-02-26T09:22:59;98003.52;;;-0.18;82.42
77118;BME280;66072;50.238;19.228;2023-02-26T09:25:27;98008.98;;;0.03;82.13
77118;BME280;66072;50.238;19.228;2023-02-26T09:27:54;98010.14;;;0.19;80.92
77118;BME280;66072;50.238;19.228;2023-02-26T09:30:25;98015.36;;;0.32;80.73
77118;BME280;66072;50.238;19.228;2023-02-26T09:32:52;98017.83;;;0.50;80.52
77118;BME280;66072;50.238;19.228;2023-02-26T09:35:20;98022.64;;;0.77;80.53
77118;BME280;66072;50.238;19.228;2023-02-26T09:37:47;98021.02;;;1.07;79.96
77118;BME280;66072;50.238;19.228;2023-02-26T09:40:52;98022.40;;;1.36;80.10
77118;BME280;66072;50.238;19.228;2023-02-26T09:46:20;98032.80;;;1.58;75.10
77118;BME280;66072;50.238;19.228;2023-02-26T09:49:01;98037.59;;;1.45;74.91
77118;BME280;66072;50.238;19.228;2023-02-26T09:51:31;98042.05;;;1.29;75.03
77118;BME280;66072;50.238;19.228;2023-02-26T09:54:05;98038.64;;;1.21;76.13
77118;BME280;66072;50.238;19.228;2023-02-26T09:56:38;98043.00;;;1.23;76.29
77118;BME280;66072;50.238;19.228;2023-02-26T09:59:08;98046.41;;;1.31;74.84
77118;BME280;66072;50.238;19.228;2023-02-26T10:01:45;98047.70;;;1.33;74.27
77118;BME280;66072;50.238;19.228;2023-02-26T10:10:28;98052.43;;;1.82;76.06
77118;BME280;66072;50.238;19.228;2023-02-26T10:12:48;98052.30;;;1.89;75.05
77118;BME280;66072;50.238;19.228;2023-02-26T10:15:22;98053.88;;;1.86;71.37
77118;BME280;66072;50.238;19.228;2023-02-26T10:23:06;98067.77;;;2.52;69.99
77118;BME280;66072;50.238;19.228;2023-02-26T10:25:46;98069.15;;;2.98;68.75
77118;BME280;66072;50.238;19.228;2023-02-26T10:28:34;98069.48;;;3.20;66.76
77118;BME280;66072;50.238;19.228;2023-02-26T10:37:22;98083.46;;;3.85;60.22
77118;BME280;66072;50.238;19.228;2023-02-26T10:40:08;98086.72;;;3.48;59.87
77118;BME280;66072;50.238;19.228;2023-02-26T10:42:49;98090.62;;;3.05;61.84
77118;BME280;66072;50.238;19.228;2023-02-26T10:50:59;98105.55;;;2.37;65.69
77118;BME280;66072;50.238;19.228;2023-02-26T10:53:31;98109.42;;;2.20;65.37
77118;BME280;66072;50.238;19.228;2023-02-26T10:56:09;98108.73;;;2.21;66.99
77118;BME280;66072;50.238;19.228;2023-02-26T10:58:38;98111.30;;;2.28;66.08
77118;BME280;66072;50.238;19.228;2023-02-26T11:01:17;98109.07;;;2.30;64.85
77118;BME280;66072;50.238;19.228;2023-02-26T11:03:47;98111.96;;;2.28;64.21
77118;BME280;66072;50.238;19.228;2023-02-26T11:06:39;98114.36;;;2.18;63.76
77118;BME280;66072;50.238;19.228;2023-02-26T11:09:22;98117.39;;;2.00;65.10
77118;BME280;66072;50.238;19.228;2023-02-26T11:11:53;98119.02;;;1.73;65.07
77118;BME280;66072;50.238;19.228;2023-02-26T11:14:24;98121.78;;;1.59;67.13
77118;BME280;66072;50.238;19.228;2023-02-26T11:16:57;98125.98;;;1.49;66.01
77118;BME280;66072;50.238;19.228;2023-02-26T11:19:29;98131.23;;;1.47;66.67
77118;BME280;66072;50.238;19.228;2023-02-26T11:21:59;98129.95;;;1.54;67.34
77118;BME280;66072;50.238;19.228;2023-02-26T11:24:35;98132.64;;;1.65;66.99
77118;BME280;66072;50.238;19.228;2023-02-26T11:27:10;98133.70;;;1.83;68.31
77118;BME280;66072;50.238;19.228;2023-02-26T11:29:40;98141.86;;;2.08;68.46
77118;BME280;66072;50.238;19.228;2023-02-26T11:32:21;98148.15;;;2.14;66.70
77118;BME280;66072;50.238;19.228;2023-02-26T11:34:50;98150.86;;;2.04;66.85
77118;BME280;66072;50.238;19.228;2023-02-26T11:37:21;98153.06;;;1.94;67.66
77118;BME280;66072;50.238;19.228;2023-02-26T11:39:58;98154.30;;;1.80;67.48
77118;BME280;66072;50.238;19.228;2023-02-26T11:42:26;98156.01;;;1.69;68.80
77118;BME280;66072;50.238;19.228;2023-02-26T11:44:56;98157.64;;;1.61;68.28
77118;BME280;66072;50.238;19.228;2023-02-26T11:47:26;98164.83;;;1.54;68.80
77118;BME280;66072;50.238;19.228;2023-02-26T11:50:01;98174.83;;;1.50;70.01
77118;BME280;66072;50.238;19.228;2023-02-26T11:52:35;98180.96;;;1.46;70.68
77118;BME280;66072;50.238;19.228;2023-02-26T11:55:05;98182.76;;;1.38;70.62
77118;BME280;66072;50.238;19.228;2023-02-26T11:57:43;98180.09;;;1.25;69.97
77118;BME280;66072;50.238;19.228;2023-02-26T12:00:28;98185.56;;;1.19;69.62
77118;BME280;66072;50.238;19.228;2023-02-26T12:03:01;98192.61;;;1.20;69.99
77118;BME280;66072;50.238;19.228;2023-02-26T12:05:30;98194.18;;;1.29;69.83
77118;BME280;66072;50.238;19.228;2023-02-26T12:07:58;98192.81;;;1.53;70.54
77118;BME280;66072;50.238;19.228;2023-02-26T12:16:27;98207.80;;;2.29;66.96
77118;BME280;66072;50.238;19.228;2023-02-26T12:19:09;98206.77;;;2.30;66.55
77118;BME280;66072;50.238;19.228;2023-02-26T12:22:05;98214.30;;;2.23;66.09
77118;BME280;66072;50.238;19.228;2023-02-26T12:36:11;98229.77;;;1.74;65.47
77118;BME280;66072;50.238;19.228;2023-02-26T12:39:08;98232.27;;;1.64;65.23
77118;BME280;66072;50.238;19.228;2023-02-26T12:50:33;98239.31;;;1.54;65.42
77118;BME280;66072;50.238;19.228;2023-02-26T12:53:32;98240.95;;;1.58;66.45
77118;BME280;66072;50.238;19.228;2023-02-26T13:13:50;98273.70;;;1.15;68.99
77118;BME280;66072;50.238;19.228;2023-02-26T13:21:53;98278.19;;;0.74;69.51
77118;BME280;66072;50.238;19.228;2023-02-26T13:24:34;98278.96;;;0.64;70.08
77118;BME280;66072;50.238;19.228;2023-02-26T13:27:04;98277.87;;;0.56;70.98
77118;BME280;66072;50.238;19.228;2023-02-26T13:29:37;98286.52;;;0.48;70.99
77118;BME280;66072;50.238;19.228;2023-02-26T13:32:11;98291.63;;;0.42;72.08
77118;BME280;66072;50.238;19.228;2023-02-26T13:35:02;98295.92;;;0.32;71.81
77118;BME280;66072;50.238;19.228;2023-02-26T13:37:40;98303.27;;;0.17;73.12
77118;BME280;66072;50.238;19.228;2023-02-26T13:43:24;98319.16;;;0.05;74.81
77118;BME280;66072;50.238;19.228;2023-02-26T13:46:10;98326.92;;;-0.01;75.34
77118;BME280;66072;50.238;19.228;2023-02-26T13:48:47;98336.53;;;-0.04;75.75
77118;BME280;66072;50.238;19.228;2023-02-26T13:53:53;98342.05;;;-0.00;75.80
77118;BME280;66072;50.238;19.228;2023-02-26T13:59:04;98346.31;;;0.17;75.82
77118;BME280;66072;50.238;19.228;2023-02-26T14:01:55;98347.11;;;0.22;75.19
77118;BME280;66072;50.238;19.228;2023-02-26T14:04:28;98345.58;;;0.26;74.87
77118;BME280;66072;50.238;19.228;2023-02-26T14:06:59;98349.05;;;0.33;74.96
77118;BME280;66072;50.238;19.228;2023-02-26T14:09:45;98356.77;;;0.39;73.89
77118;BME280;66072;50.238;19.228;2023-02-26T14:14:43;98358.57;;;0.44;72.27
77118;BME280;66072;50.238;19.228;2023-02-26T14:22:20;98364.86;;;0.54;72.86
77118;BME280;66072;50.238;19.228;2023-02-26T14:25:33;98365.72;;;0.56;73.36
77118;BME280;66072;50.238;19.228;2023-02-26T14:33:46;98363.73;;;0.48;72.46
77118;BME280;66072;50.238;19.228;2023-02-26T14:36:20;98364.42;;;0.47;72.25
77118;BME280;66072;50.238;19.228;2023-02-26T14:38:52;98367.94;;;0.48;73.22
77118;BME280;66072;50.238;19.228;2023-02-26T14:41:33;98366.27;;;0.48;72.93
77118;BME280;66072;50.238;19.228;2023-02-26T14:44:11;98366.95;;;0.47;72.85
77118;BME280;66072;50.238;19.228;2023-02-26T14:46:41;98371.00;;;0.46;72.61
77118;BME280;66072;50.238;19.228;2023-02-26T14:52:05;98377.23;;;0.42;72.78
77118;BME280;66072;50.238;19.228;2023-02-26T14:58:15;98389.38;;;0.41;72.80
77118;BME280;66072;50.238;19.228;2023-02-26T15:01:06;98398.48;;;0.36;72.02
77118;BME280;66072;50.238;19.228;2023-02-26T15:03:54;98402.73;;;0.28;72.17
77118;BME280;66072;50.238;19.228;2023-02-26T15:20:34;98433.73;;;-0.14;74.75
77118;BME280;66072;50.238;19.228;2023-02-26T15:25:48;98449.75;;;-0.25;75.96
77118;BME280;66072;50.238;19.228;2023-02-26T15:30:52;98460.73;;;-0.44;76.97
77118;BME280;66072;50.238;19.228;2023-02-26T15:33:22;98466.96;;;-0.50;78.11
77118;BME280;66072;50.238;19.228;2023-02-26T15:35:50;98466.47;;;-0.58;78.27
77118;BME280;66072;50.238;19.228;2023-02-26T15:38:19;98469.52;;;-0.68;79.85
77118;BME280;66072;50.238;19.228;2023-02-26T15:40:48;98463.65;;;-0.82;80.93
77118;BME280;66072;50.238;19.228;2023-02-26T15:43:21;98461.48;;;-0.91;81.07
77118;BME280;66072;50.238;19.228;2023-02-26T15:45:53;98463.34;;;-0.96;81.52
77118;BME280;66072;50.238;19.228;2023-02-26T15:50:54;98470.73;;;-1.02;81.89
77118;BME280;66072;50.238;19.228;2023-02-26T15:53:29;98476.27;;;-1.02;82.08
77118;BME280;66072;50.238;19.228;2023-02-26T15:56:00;98478.95;;;-1.05;82.35
77118;BME280;66072;50.238;19.228;2023-02-26T15:58:52;98481.80;;;-1.07;82.23
77118;BME280;66072;50.238;19.228;2023-02-26T16:01:26;98484.48;;;-1.07;82.50
77118;BME280;66072;50.238;19.228;2023-02-26T16:04:00;98486.16;;;-1.10;82.71